Time;durP1;ratioP1;P1;durP2;ratioP2;P2;SDS_P1;SDS_P2;PMS_P1;PMS_P2;Temp;Humidity;BMP_temperature;BMP_pressure;BME280_temperature;BME280_humidity;BME280_pressure;Samples;Min_cycle;Max_cycle;Signal;HPM_P1;HPM_P2
2024/01/17 14:12:59;;;;;;;;;;;;;;;2.40;38.35;100981.81;106566;1253;62427;-80
2024/01/17 14:15:33;;;;;;;;;;;;;;;2.24;38.45;100974.73;106620;1253;61646;-80
2024/01/17 14:18:07;;;;;;;;;;;;;;;2.15;38.25;100978.89;106589;1256;75767;-81
2024/01/17 14:20:35;;;;;;;;;;;;;;;1.93;38.64;100981.80;106658;1257;70299;-81
2024/01/17 14:23:03;;;;;;;;;;;;;;;1.78;39.19;100988.91;106533;1253;71964;-81
2024/01/17 14:25:32;;;;;;;;;;;;;;;1.65;39.68;100996.27;106532;1253;62625;-80
2024/01/17 14:28:00;;;;;;;;;;;;;;;1.56;39.49;100993.10;106588;1254;61917;-80
2024/01/17 14:30:29;;;;;;;;;;;;;;;1.44;39.48;100990.09;106597;1253;75799;-81
2024/01/17 14:32:57;;;;;;;;;;;;;;;1.28;40.09;100992.80;106442;1256;69549;-80
2024/01/17 14:35:28;;;;;;;;;;;;;;;1.13;40.52;100989.17;106480;1257;72393;-83
2024/01/17 14:37:56;;;;;;;;;;;;;;;1.07;41.19;100986.27;106591;1253;63371;-81
2024/01/17 14:40:24;;;;;;;;;;;;;;;1.04;41.56;100992.48;106594;1255;61348;-82
2024/01/17 14:42:58;;;;;;;;;;;;;;;0.94;41.54;100993.56;106944;1253;76617;-81
2024/01/17 14:45:33;;;;;;;;;;;;;;;0.80;41.80;100991.11;106879;1257;69442;-82
2024/01/17 14:48:04;;;;;;;;;;;;;;;0.70;41.63;100994.48;106669;1253;74911;-81
2024/01/17 14:50:37;;;;;;;;;;;;;;;0.61;41.78;100995.30;106710;1256;61340;-81
2024/01/17 14:53:11;;;;;;;;;;;;;;;0.50;41.75;100996.04;106556;1253;62122;-82
2024/01/17 14:55:42;;;;;;;;;;;;;;;0.45;41.78;100992.91;106572;1256;75604;-81
2024/01/17 14:58:15;;;;;;;;;;;;;;;0.35;41.93;100988.11;106541;1253;71068;-81
2024/01/17 15:00:47;;;;;;;;;;;;;;;0.29;42.07;100981.33;106523;1258;73883;-80
2024/01/17 15:03:21;;;;;;;;;;;;;;;0.27;42.33;100978.63;106477;1253;63881;-81
2024/01/17 15:05:55;;;;;;;;;;;;;;;0.23;42.28;100981.00;106551;1257;61590;-80
2024/01/17 15:08:31;;;;;;;;;;;;;;;0.17;42.65;100984.13;106640;1253;76770;-82
2024/01/17 15:11:05;;;;;;;;;;;;;;;0.19;42.64;100988.17;106610;1258;69590;-81
2024/01/17 15:13:39;;;;;;;;;;;;;;;0.22;42.44;100989.27;106450;1257;73069;-80
2024/01/17 15:16:22;;;;;;;;;;;;;;;0.09;42.73;100988.25;106563;1252;61287;-80
2024/01/17 15:18:56;;;;;;;;;;;;;;;0.03;42.96;100988.00;106646;1258;61887;-81
2024/01/17 15:21:30;;;;;;;;;;;;;;;0.02;42.89;100983.73;106507;1257;76662;-80
2024/01/17 15:24:08;;;;;;;;;;;;;;;-0.05;43.15;100984.81;106542;1258;69575;-81
2024/01/17 15:26:43;;;;;;;;;;;;;;;-0.00;43.11;100985.50;106681;1253;74489;-82
2024/01/17 15:29:18;;;;;;;;;;;;;;;-0.05;43.22;100987.70;106650;1256;62498;-80
2024/01/17 15:31:51;;;;;;;;;;;;;;;-0.06;43.04;100986.23;106509;1253;62486;-81
2024/01/17 15:34:25;;;;;;;;;;;;;;;-0.14;43.31;100988.53;106694;1254;76941;-82
2024/01/17 15:36:59;;;;;;;;;;;;;;;-0.16;43.22;100993.08;106551;1257;68700;-80
2024/01/17 15:39:33;;;;;;;;;;;;;;;-0.24;43.29;100998.92;106432;1253;72640;-80
2024/01/17 15:42:06;;;;;;;;;;;;;;;-0.30;43.51;100998.01;107414;1251;62868;-81
2024/01/17 15:44:40;;;;;;;;;;;;;;;-0.29;43.56;100999.38;107060;1253;61277;-80
2024/01/17 15:47:15;;;;;;;;;;;;;;;-0.30;43.56;101000.56;106645;1254;76654;-81
2024/01/17 15:49:49;;;;;;;;;;;;;;;-0.28;43.47;101007.82;106917;1253;68753;-82
2024/01/17 15:52:23;;;;;;;;;;;;;;;-0.25;43.53;101008.30;106731;1259;74725;-81
2024/01/17 15:54:57;;;;;;;;;;;;;;;-0.27;43.47;101013.73;106794;1259;61551;-81
2024/01/17 15:57:31;;;;;;;;;;;;;;;-0.29;43.47;101014.21;106749;1255;61236;-82
2024/01/17 16:00:09;;;;;;;;;;;;;;;-0.34;43.56;101014.74;106576;1259;75588;-83
2024/01/17 16:02:46;;;;;;;;;;;;;;;-0.44;43.37;101007.73;106653;1253;69421;-81
2024/01/17 16:05:19;;;;;;;;;;;;;;;-0.49;43.54;101007.02;106794;1259;73739;-81
2024/01/17 16:07:53;;;;;;;;;;;;;;;-0.57;43.38;101008.02;106456;1256;61371;-82
2024/01/17 16:10:27;;;;;;;;;;;;;;;-0.73;43.45;101005.98;106519;1257;62031;-83
2024/01/17 16:13:01;;;;;;;;;;;;;;;-0.67;43.23;101010.69;106737;1253;76795;-81
2024/01/17 16:15:35;;;;;;;;;;;;;;;-0.66;43.21;101005.13;106718;1259;70959;-82
2024/01/17 16:18:09;;;;;;;;;;;;;;;-0.72;43.17;101004.78;106756;1256;72590;-80
2024/01/17 16:20:44;;;;;;;;;;;;;;;-0.72;43.00;101006.71;106777;1255;61994;-81
2024/01/17 16:23:18;;;;;;;;;;;;;;;-0.79;43.03;101009.59;106765;1258;61951;-81
2024/01/17 16:25:51;;;;;;;;;;;;;;;-0.80;43.19;101012.21;106733;1254;74280;-81
2024/01/17 16:28:25;;;;;;;;;;;;;;;-0.80;43.22;101016.69;106747;1254;70898;-83
2024/01/17 16:31:01;;;;;;;;;;;;;;;-0.76;43.15;101018.46;106753;1254;75248;-82
2024/01/17 16:33:35;;;;;;;;;;;;;;;-0.76;43.04;101022.95;106613;1254;61317;-81
2024/01/17 16:36:09;;;;;;;;;;;;;;;-0.77;43.32;101021.66;106665;1256;61164;-80
2024/01/17 16:38:43;;;;;;;;;;;;;;;-0.93;43.46;101015.92;106763;1254;76843;-81
2024/01/17 16:41:22;;;;;;;;;;;;;;;-0.97;43.36;101014.67;106710;1253;70027;-82
2024/01/17 16:43:55;;;;;;;;;;;;;;;-1.01;43.43;101009.30;106429;1258;72446;-80
2024/01/17 16:46:29;;;;;;;;;;;;;;;-1.05;43.44;101010.09;106448;1253;61769;-80
2024/01/17 16:49:03;;;;;;;;;;;;;;;-1.09;43.39;101007.90;106622;1258;61182;-80
2024/01/17 16:51:37;;;;;;;;;;;;;;;-1.12;43.61;101000.73;106470;1253;76652;-81
2024/01/17 16:54:11;;;;;;;;;;;;;;;-1.09;43.41;100997.54;107371;1254;69663;-81
2024/01/17 16:56:45;;;;;;;;;;;;;;;-1.08;43.50;100999.37;106922;1254;75352;-81
2024/01/17 16:59:19;;;;;;;;;;;;;;;-1.04;43.59;101000.70;106730;1255;61366;-81
2024/01/17 17:01:53;;;;;;;;;;;;;;;-1.01;43.38;100997.60;106549;1257;61189;-79
2024/01/17 17:04:27;;;;;;;;;;;;;;;-1.02;43.50;101002.98;106852;1257;76579;-81
2024/01/17 17:07:01;;;;;;;;;;;;;;;-1.15;43.71;100998.59;106860;1253;71004;-81
2024/01/17 17:09:35;;;;;;;;;;;;;;;-1.21;43.98;100998.92;106605;1258;73817;-81
2024/01/17 17:12:08;;;;;;;;;;;;;;;-1.22;43.99;100994.54;106668;1254;62054;-81
2024/01/17 17:14:43;;;;;;;;;;;;;;;-1.21;44.01;100987.63;106387;1255;61969;-81
2024/01/17 17:17:17;;;;;;;;;;;;;;;-1.26;43.95;100987.73;106981;1254;76624;-83
2024/01/17 17:19:51;;;;;;;;;;;;;;;-1.33;43.85;100984.56;106548;1257;69820;-82
2024/01/17 17:22:26;;;;;;;;;;;;;;;-1.36;43.90;100979.04;106442;1257;74915;-82
2024/01/17 17:25:10;;;;;;;;;;;;;;;-1.40;43.78;100974.73;106529;1256;62653;-83
2024/01/17 17:27:46;;;;;;;;;;;;;;;-1.44;43.91;100973.98;106585;1258;61327;-83
2024/01/17 17:30:20;;;;;;;;;;;;;;;-1.41;43.97;100976.39;107084;1254;75776;-82
2024/01/17 17:32:54;;;;;;;;;;;;;;;-1.46;44.20;100973.50;106521;1257;71997;-82
2024/01/17 17:35:28;;;;;;;;;;;;;;;-1.45;44.18;100971.02;106448;1254;74966;-83
2024/01/17 17:38:03;;;;;;;;;;;;;;;-1.45;44.16;100974.30;106488;1259;61360;-84
2024/01/17 17:40:39;;;;;;;;;;;;;;;-1.49;44.25;100971.13;106402;1258;62169;-82
2024/01/17 17:43:17;;;;;;;;;;;;;;;-1.51;44.38;100962.45;106639;1254;75810;-82
2024/01/17 17:45:52;;;;;;;;;;;;;;;-1.56;44.29;100958.55;106571;1257;69375;-82
2024/01/17 17:48:26;;;;;;;;;;;;;;;-1.64;44.04;100953.24;106553;1257;73654;-82
2024/01/17 17:51:00;;;;;;;;;;;;;;;-1.73;44.04;100947.15;106518;1253;62515;-82
2024/01/17 17:53:35;;;;;;;;;;;;;;;-1.79;44.24;100929.70;106466;1254;61218;-82
2024/01/17 17:56:09;;;;;;;;;;;;;;;-1.89;44.23;100911.74;107200;1258;76899;-80
2024/01/17 17:58:43;;;;;;;;;;;;;;;-2.04;44.41;100914.60;106828;1258;70341;-82
2024/01/17 18:01:16;;;;;;;;;;;;;;;-2.04;44.50;100918.71;106778;1259;75217;-82
2024/01/17 18:03:50;;;;;;;;;;;;;;;-2.05;44.53;100912.11;106507;1254;61875;-81
2024/01/17 18:06:24;;;;;;;;;;;;;;;-1.98;44.42;100907.52;106783;1253;61351;-82
2024/01/17 18:08:59;;;;;;;;;;;;;;;-1.99;44.43;100911.54;106961;1259;76569;-81
2024/01/17 18:11:34;;;;;;;;;;;;;;;-1.96;44.36;100906.14;106590;1258;69635;-82
2024/01/17 18:14:08;;;;;;;;;;;;;;;-1.99;44.35;100901.29;106908;1259;73738;-82
2024/01/17 18:16:41;;;;;;;;;;;;;;;-1.96;44.18;100907.88;106628;1253;63078;-82
2024/01/17 18:19:16;;;;;;;;;;;;;;;-1.99;44.46;100907.52;106532;1256;61324;-82
2024/01/17 18:21:51;;;;;;;;;;;;;;;-1.96;44.44;100908.45;106848;1255;76795;-80
2024/01/17 18:24:25;;;;;;;;;;;;;;;-1.91;43.94;100908.63;106575;1255;71084;-82
2024/01/17 18:26:59;;;;;;;;;;;;;;;-1.89;43.96;100910.44;106523;1260;73592;-82
2024/01/17 18:29:33;;;;;;;;;;;;;;;-1.86;44.04;100909.69;106905;1254;62453;-82
2024/01/17 18:32:07;;;;;;;;;;;;;;;-1.81;43.99;100907.16;106517;1257;62478;-80
2024/01/17 18:34:40;;;;;;;;;;;;;;;-1.77;44.26;100907.70;106804;1254;76419;-82
2024/01/17 18:37:15;;;;;;;;;;;;;;;-1.77;44.00;100912.73;106504;1258;68120;-82
2024/01/17 18:39:48;;;;;;;;;;;;;;;-1.73;44.20;100906.89;106563;1257;73704;-82
2024/01/17 18:42:23;;;;;;;;;;;;;;;-1.76;44.16;100909.40;106958;1259;64169;-82
2024/01/17 18:44:56;;;;;;;;;;;;;;;-1.84;44.18;100911.28;106270;1257;181597;-83
2024/01/17 18:47:30;;;;;;;;;;;;;;;-1.99;44.44;100913.48;106604;1254;75665;-83
2024/01/17 18:50:04;;;;;;;;;;;;;;;-1.96;44.30;100907.38;106535;1259;70606;-83
2024/01/17 18:52:38;;;;;;;;;;;;;;;-2.11;44.32;100899.59;106651;1259;73749;-83
2024/01/17 18:55:12;;;;;;;;;;;;;;;-2.43;45.03;100903.91;106886;1254;61234;-83
2024/01/17 18:57:46;;;;;;;;;;;;;;;-2.47;44.86;100899.41;106723;1254;61167;-83
2024/01/17 19:00:20;;;;;;;;;;;;;;;-2.56;45.02;100901.40;106507;1254;76950;-83
2024/01/17 19:02:54;;;;;;;;;;;;;;;-2.59;45.12;100905.73;106514;1259;70611;-83
2024/01/17 19:05:29;;;;;;;;;;;;;;;-2.55;45.26;100905.04;106789;1259;72921;-83
2024/01/17 19:08:04;;;;;;;;;;;;;;;-2.57;45.45;100896.00;106648;1255;61977;-83
2024/01/17 19:10:38;;;;;;;;;;;;;;;-2.51;45.53;100895.23;106656;1264;62106;-83
2024/01/17 19:13:14;;;;;;;;;;;;;;;-2.52;45.49;100890.40;106638;1253;76811;-83
2024/01/17 19:15:48;;;;;;;;;;;;;;;-2.44;45.61;100891.58;106560;1255;70900;-83
2024/01/17 19:18:21;;;;;;;;;;;;;;;-2.44;45.60;100886.56;106906;1257;75056;-83
2024/01/17 19:20:57;;;;;;;;;;;;;;;-2.47;45.90;100887.13;106654;1254;63093;-83
2024/01/17 19:23:31;;;;;;;;;;;;;;;-2.44;45.86;100889.23;106850;1257;61255;-82
2024/01/17 19:26:08;;;;;;;;;;;;;;;-2.46;45.87;100895.15;106599;1254;74177;-82
2024/01/17 19:28:42;;;;;;;;;;;;;;;-2.54;46.27;100896.30;106711;1257;71535;-82
2024/01/17 19:31:16;;;;;;;;;;;;;;;-2.37;46.70;100891.27;106738;1258;74829;-82
2024/01/17 19:33:51;;;;;;;;;;;;;;;-2.16;46.87;100883.59;106528;1254;62986;-82
2024/01/17 19:36:25;;;;;;;;;;;;;;;-2.08;47.30;100889.98;106675;1254;61669;-83
2024/01/17 19:38:59;;;;;;;;;;;;;;;-2.07;47.22;100891.80;106468;1258;76493;-84
2024/01/17 19:41:33;;;;;;;;;;;;;;;-2.05;46.75;100889.23;106767;1258;70707;-82
2024/01/17 19:44:07;;;;;;;;;;;;;;;-2.12;46.37;100884.00;106621;1258;75186;-82
2024/01/17 19:46:42;;;;;;;;;;;;;;;-2.22;46.40;100884.33;106645;1257;62145;-82
2024/01/17 19:49:16;;;;;;;;;;;;;;;-2.13;45.91;100892.52;106530;1253;60908;-82
2024/01/17 19:52:06;;;;;;;;;;;;;;;-2.24;45.69;100888.79;106813;1259;76515;-83
2024/01/17 19:54:42;;;;;;;;;;;;;;;-2.36;45.96;100883.96;106641;1254;71175;-80
2024/01/17 19:57:16;;;;;;;;;;;;;;;-2.43;46.07;100876.64;106677;1258;74619;-83
2024/01/17 19:59:50;;;;;;;;;;;;;;;-2.44;46.04;100872.77;106769;1254;64383;-82
2024/01/17 20:02:27;;;;;;;;;;;;;;;-2.41;45.98;100867.14;107021;1253;61269;-82
2024/01/17 20:05:00;;;;;;;;;;;;;;;-2.46;45.91;100870.32;106463;1257;76988;-82
2024/01/17 20:07:34;;;;;;;;;;;;;;;-2.50;46.09;100872.30;106620;1256;71097;-81
2024/01/17 20:10:08;;;;;;;;;;;;;;;-2.51;45.94;100870.33;106584;1255;73132;-82
2024/01/17 20:12:42;;;;;;;;;;;;;;;-2.55;45.75;100866.96;106727;1254;63139;-80
2024/01/17 20:15:16;;;;;;;;;;;;;;;-2.68;45.77;100867.92;106833;1256;61348;-82
2024/01/17 20:17:50;;;;;;;;;;;;;;;-2.72;45.89;100857.29;106616;1254;76370;-82
2024/01/17 20:20:24;;;;;;;;;;;;;;;-2.75;45.89;100855.05;106745;1253;71080;-81
2024/01/17 20:22:58;;;;;;;;;;;;;;;-2.78;45.99;100852.21;106483;1257;73580;-82
2024/01/17 20:25:31;;;;;;;;;;;;;;;-2.88;46.33;100846.98;106955;1252;62249;-82
2024/01/17 20:28:06;;;;;;;;;;;;;;;-2.91;46.70;100846.66;106742;1255;61750;-83
2024/01/17 20:30:41;;;;;;;;;;;;;;;-2.93;46.75;100841.77;106660;1254;74587;-82
2024/01/17 20:33:15;;;;;;;;;;;;;;;-2.91;46.84;100837.59;106916;1257;70587;-83
2024/01/17 20:35:49;;;;;;;;;;;;;;;-2.88;47.02;100839.05;106781;1254;73889;-82
2024/01/17 20:38:23;;;;;;;;;;;;;;;-2.84;47.20;100840.85;106794;1254;61884;-83
2024/01/17 20:40:57;;;;;;;;;;;;;;;-2.78;47.39;100836.86;106615;1254;61379;-82
2024/01/17 20:43:31;;;;;;;;;;;;;;;-2.73;47.53;100838.63;106635;1252;73455;-82
2024/01/17 20:46:05;;;;;;;;;;;;;;;-2.71;47.73;100833.64;106782;1250;69531;-82
2024/01/17 20:48:38;;;;;;;;;;;;;;;-2.67;47.61;100832.95;106754;1257;74940;-82
2024/01/17 20:51:23;;;;;;;;;;;;;;;-2.62;47.63;100836.64;106688;1254;61325;-82
2024/01/17 20:53:57;;;;;;;;;;;;;;;-2.59;47.51;100833.90;106738;1257;61218;-83
2024/01/17 20:56:31;;;;;;;;;;;;;;;-2.61;47.48;100825.42;106859;1253;76752;-83
2024/01/17 20:59:04;;;;;;;;;;;;;;;-2.67;47.43;100817.03;106610;1259;69451;-84
2024/01/17 21:01:39;;;;;;;;;;;;;;;-2.68;47.52;100805.08;106638;1256;75376;-81
2024/01/17 21:04:13;;;;;;;;;;;;;;;-2.71;47.58;100807.38;106639;1254;62821;-81
2024/01/17 21:06:49;;;;;;;;;;;;;;;-2.71;47.46;100796.60;106574;1254;61155;-84
2024/01/17 21:09:23;;;;;;;;;;;;;;;-2.70;47.52;100788.71;107200;1250;74664;-82
2024/01/17 21:11:58;;;;;;;;;;;;;;;-2.68;47.62;100777.09;106706;1254;67250;-82
